createdAt,value
2022-11-13T00:00:54.295Z,5.01
2022-11-13T00:03:51.770Z,4.98
2022-11-13T00:06:49.344Z,4.96
2022-11-13T00:09:47.214Z,4.93
2022-11-13T00:12:44.667Z,4.91
2022-11-13T00:15:42.118Z,4.91
2022-11-13T00:18:39.562Z,4.90
2022-11-13T00:21:36.998Z,4.90
2022-11-13T00:24:34.919Z,4.90
2022-11-13T00:27:32.362Z,4.91
2022-11-13T00:30:29.835Z,4.93
2022-11-13T00:33:55.140Z,4.95
2022-11-13T00:36:44.751Z,4.95
2022-11-13T00:39:42.431Z,4.96
2022-11-13T00:42:39.849Z,4.94
2022-11-13T00:45:37.301Z,4.93
2022-11-13T00:48:34.754Z,4.91
2022-11-13T00:51:32.224Z,4.92
2022-11-13T00:54:29.675Z,4.89
2022-11-13T00:57:27.253Z,4.88
2022-11-13T01:00:24.697Z,4.85
2022-11-13T01:03:22.163Z,4.81
2022-11-13T01:06:19.625Z,4.80
2022-11-13T01:09:17.099Z,4.76
2022-11-13T01:12:14.734Z,4.73
2022-11-13T01:15:12.206Z,4.70
2022-11-13T01:18:09.819Z,4.68
2022-11-13T01:21:07.272Z,4.66
2022-11-13T01:24:04.827Z,4.63
2022-11-13T01:27:02.451Z,4.61
2022-11-13T01:29:59.963Z,4.60
2022-11-13T01:32:57.426Z,4.59
2022-11-13T01:35:54.881Z,4.58
2022-11-13T01:38:52.389Z,4.57
2022-11-13T01:41:49.847Z,4.57
2022-11-13T01:44:47.547Z,4.59
2022-11-13T01:47:45.131Z,4.59
2022-11-13T01:50:42.627Z,4.58
2022-11-13T01:53:40.133Z,4.55
2022-11-13T01:56:37.606Z,4.52
2022-11-13T01:59:35.309Z,4.49
2022-11-13T02:02:33.293Z,4.48
2022-11-13T02:05:30.741Z,4.47
2022-11-13T02:08:28.935Z,4.46
2022-11-13T02:11:26.916Z,4.46
2022-11-13T02:14:24.412Z,4.46
2022-11-13T02:17:21.877Z,4.46
2022-11-13T02:20:19.324Z,4.47
2022-11-13T02:23:17.415Z,4.49
2022-11-13T02:26:14.885Z,4.51
2022-11-13T02:29:12.403Z,4.53
2022-11-13T02:32:09.898Z,4.53
2022-11-13T02:35:07.421Z,4.54
2022-11-13T02:38:05.100Z,4.56
2022-11-13T02:41:02.531Z,4.58
2022-11-13T02:44:00.038Z,4.59
2022-11-13T02:46:57.599Z,4.62
2022-11-13T02:49:55.039Z,4.65
2022-11-13T02:52:52.496Z,4.69
2022-11-13T02:55:50.003Z,4.71
2022-11-13T02:58:47.481Z,4.73
2022-11-13T03:01:45.827Z,4.76
2022-11-13T03:05:10.766Z,4.74
2022-11-13T03:08:00.884Z,4.76
2022-11-13T03:10:58.342Z,4.79
2022-11-13T03:13:55.803Z,4.80
2022-11-13T03:16:53.284Z,4.82
2022-11-13T03:19:50.752Z,4.84
2022-11-13T03:22:48.223Z,4.87
2022-11-13T03:25:45.673Z,4.90
2022-11-13T03:28:43.129Z,4.93
2022-11-13T03:31:40.670Z,4.94
2022-11-13T03:34:38.829Z,4.96
2022-11-13T03:37:36.313Z,4.94
2022-11-13T03:40:33.778Z,4.89
2022-11-13T03:43:31.221Z,4.85
2022-11-13T03:46:28.687Z,4.83
2022-11-13T03:49:26.433Z,4.81
2022-11-13T03:52:23.884Z,4.81
2022-11-13T03:55:21.353Z,4.81
2022-11-13T03:58:18.822Z,4.83
2022-11-13T04:01:16.344Z,4.86
2022-11-13T04:04:13.893Z,4.90
2022-11-13T04:07:11.410Z,4.92
2022-11-13T04:10:08.937Z,4.95
2022-11-13T04:13:06.391Z,4.97
2022-11-13T04:16:03.868Z,4.99
2022-11-13T04:19:01.324Z,5.01
2022-11-13T04:21:58.810Z,5.03
2022-11-13T04:24:56.756Z,5.03
2022-11-13T04:27:54.247Z,5.04
2022-11-13T04:30:51.718Z,5.07
2022-11-13T04:33:49.199Z,5.10
2022-11-13T04:36:46.657Z,5.12
2022-11-13T04:39:44.129Z,5.15
2022-11-13T04:42:50.773Z,5.17
2022-11-13T04:45:48.260Z,5.20
2022-11-13T04:48:45.713Z,5.21
2022-11-13T04:51:43.174Z,5.19
2022-11-13T04:54:40.609Z,5.20
2022-11-13T04:57:38.058Z,5.22
2022-11-13T05:00:35.493Z,5.27
2022-11-13T05:03:32.944Z,5.31
2022-11-13T05:06:30.410Z,5.35
2022-11-13T05:09:27.859Z,5.37
2022-11-13T05:12:25.309Z,5.39
2022-11-13T05:15:22.794Z,5.42
2022-11-13T05:18:20.303Z,5.44
2022-11-13T05:21:17.805Z,5.44
2022-11-13T05:24:15.275Z,5.43
2022-11-13T05:27:17.047Z,5.42
2022-11-13T05:30:15.196Z,5.41
2022-11-13T05:33:12.663Z,5.43
2022-11-13T05:36:10.125Z,5.45
2022-11-13T05:39:07.584Z,5.42
2022-11-13T05:42:05.862Z,5.43
2022-11-13T05:45:03.309Z,5.42
2022-11-13T05:48:00.856Z,5.44
2022-11-13T05:50:58.337Z,5.45
2022-11-13T05:53:55.804Z,5.47
2022-11-13T05:56:53.261Z,5.49
2022-11-13T05:59:50.741Z,5.50
2022-11-13T06:02:48.182Z,5.51
2022-11-13T06:05:45.665Z,5.51
2022-11-13T06:08:43.149Z,5.53
2022-11-13T06:11:40.596Z,5.53
2022-11-13T06:14:38.042Z,5.52
2022-11-13T06:17:35.489Z,5.51
2022-11-13T06:20:32.952Z,5.52
2022-11-13T06:23:30.413Z,5.53
2022-11-13T06:26:27.876Z,5.51
2022-11-13T06:29:25.346Z,5.50
2022-11-13T06:32:22.800Z,5.52
2022-11-13T06:35:20.271Z,5.53
2022-11-13T06:38:17.746Z,5.53
2022-11-13T06:41:15.193Z,5.56
2022-11-13T06:44:12.669Z,5.57
2022-11-13T06:47:10.185Z,5.57
2022-11-13T06:50:07.726Z,5.58
2022-11-13T06:53:05.645Z,5.59
2022-11-13T06:56:03.117Z,5.58
2022-11-13T06:59:00.585Z,5.60
2022-11-13T07:01:58.025Z,5.62
2022-11-13T07:04:55.492Z,5.62
2022-11-13T07:07:52.936Z,5.62
2022-11-13T07:10:50.403Z,5.62
2022-11-13T07:13:47.861Z,5.63
2022-11-13T07:17:08.176Z,5.63
2022-11-13T07:20:03.170Z,5.67
2022-11-13T07:23:03.463Z,5.71
2022-11-13T07:26:00.913Z,5.77
2022-11-13T07:28:58.359Z,5.81
2022-11-13T07:31:55.807Z,5.86
2022-11-13T07:34:53.267Z,5.92
2022-11-13T07:37:50.731Z,5.96
2022-11-13T07:40:48.211Z,5.98
2022-11-13T07:43:46.844Z,6.04
2022-11-13T07:46:44.319Z,6.10
2022-11-13T07:49:41.772Z,6.13
2022-11-13T07:52:39.211Z,6.14
2022-11-13T07:55:36.707Z,6.16
2022-11-13T07:58:34.155Z,6.17
2022-11-13T08:01:31.629Z,6.18
2022-11-13T08:04:29.573Z,6.20
2022-11-13T08:07:27.083Z,6.20
2022-11-13T08:10:24.624Z,6.21
2022-11-13T08:13:22.106Z,6.19
2022-11-13T08:16:19.714Z,6.20
2022-11-13T08:19:17.185Z,6.23
2022-11-13T08:22:14.689Z,6.29
2022-11-13T08:25:12.141Z,6.34
2022-11-13T08:28:13.229Z,6.39
2022-11-13T08:31:11.136Z,6.41
2022-11-13T08:34:08.601Z,6.43
2022-11-13T08:37:06.069Z,6.43
2022-11-13T08:40:03.596Z,6.45
2022-11-13T08:43:01.255Z,6.50
2022-11-13T08:45:58.702Z,6.53
2022-11-13T08:48:56.150Z,6.58
2022-11-13T08:51:53.603Z,6.67
2022-11-13T08:54:51.048Z,6.77
2022-11-13T08:57:48.504Z,6.87
2022-11-13T09:00:45.936Z,6.99
2022-11-13T09:03:43.450Z,7.07
2022-11-13T09:06:40.951Z,7.15
2022-11-13T09:09:38.498Z,7.20
2022-11-13T09:12:35.948Z,7.26
2022-11-13T09:15:33.661Z,7.37
2022-11-13T09:18:31.439Z,7.49
2022-11-13T09:21:29.190Z,7.62
2022-11-13T09:24:26.653Z,7.70
2022-11-13T09:27:24.125Z,7.75
2022-11-13T09:33:23.187Z,7.84
2022-11-13T09:36:20.644Z,7.84
2022-11-13T09:39:18.218Z,7.91
2022-11-13T09:42:16.350Z,7.99
2022-11-13T09:45:13.819Z,8.01
2022-11-13T09:48:11.281Z,8.02
2022-11-13T09:51:08.775Z,8.05
2022-11-13T09:54:06.267Z,8.05
2022-11-13T09:57:03.779Z,8.08
2022-11-13T10:00:01.778Z,8.13
2022-11-13T10:02:59.269Z,8.20
2022-11-13T10:05:56.742Z,8.29
2022-11-13T10:08:54.190Z,8.31
2022-11-13T10:11:51.641Z,8.31
2022-11-13T10:14:49.090Z,8.30
2022-11-13T10:17:46.577Z,8.35
2022-11-13T10:20:44.020Z,8.37
2022-11-13T10:23:41.503Z,8.40
2022-11-13T10:26:38.971Z,8.47
2022-11-13T10:29:36.493Z,8.47
2022-11-13T10:32:34.052Z,8.43
2022-11-13T10:35:31.613Z,8.45
2022-11-13T10:38:29.085Z,8.43
2022-11-13T10:41:26.542Z,8.41
2022-11-13T10:44:24.006Z,8.41
2022-11-13T10:47:42.462Z,8.47
2022-11-13T10:50:39.509Z,8.55
2022-11-13T10:53:38.043Z,8.58
2022-11-13T10:56:35.546Z,8.64
2022-11-13T10:59:33.028Z,8.70
2022-11-13T11:02:31.176Z,8.82
2022-11-13T11:05:28.668Z,8.98
2022-11-13T11:08:26.468Z,9.20
2022-11-13T11:11:42.368Z,9.50
2022-11-13T11:14:39.818Z,9.64
2022-11-13T11:17:38.252Z,9.82
2022-11-13T11:20:35.792Z,9.99
2022-11-13T11:23:33.258Z,10.19
2022-11-13T11:26:30.825Z,10.31
2022-11-13T11:29:28.371Z,10.41
2022-11-13T11:32:25.881Z,10.53
2022-11-13T11:35:23.321Z,10.62
2022-11-13T11:38:21.573Z,10.70
2022-11-13T11:41:19.527Z,10.73
2022-11-13T11:44:17.039Z,10.77
2022-11-13T11:47:14.640Z,10.83
2022-11-13T11:50:12.228Z,10.83
2022-11-13T11:53:09.788Z,10.88
2022-11-13T11:56:07.293Z,10.93
2022-11-13T11:59:04.759Z,10.97
2022-11-13T12:02:02.396Z,11.01
2022-11-13T12:04:59.874Z,11.09
2022-11-13T12:07:57.374Z,11.15
2022-11-13T12:10:55.409Z,11.19
2022-11-13T12:13:52.901Z,11.24
2022-11-13T12:16:50.390Z,11.30
2022-11-13T12:19:47.882Z,11.37
2022-11-13T12:22:46.695Z,11.44
2022-11-13T12:25:44.192Z,11.51
2022-11-13T12:28:41.674Z,11.59
2022-11-13T12:31:40.174Z,11.69
2022-11-13T12:34:39.931Z,11.79
2022-11-13T12:37:37.382Z,11.91
2022-11-13T12:40:37.487Z,12.02
2022-11-13T12:43:37.378Z,12.11
2022-11-13T12:46:34.828Z,12.21
2022-11-13T12:49:33.151Z,12.26
2022-11-13T12:52:30.599Z,12.31
2022-11-13T12:55:28.063Z,12.33
2022-11-13T12:58:25.658Z,12.38
2022-11-13T13:01:23.664Z,12.42
2022-11-13T13:04:21.706Z,12.43
2022-11-13T13:07:19.231Z,12.45
2022-11-13T13:10:16.691Z,12.46
2022-11-13T13:13:16.224Z,12.46
2022-11-13T13:16:17.115Z,12.45
2022-11-13T13:19:14.585Z,12.45
2022-11-13T13:22:12.062Z,12.46
2022-11-13T13:25:14.197Z,12.45
2022-11-13T13:28:12.144Z,12.43
2022-11-13T13:31:09.653Z,12.40
2022-11-13T13:34:07.095Z,12.39
2022-11-13T13:37:04.617Z,12.38
2022-11-13T13:40:02.086Z,12.37
2022-11-13T13:42:59.537Z,12.34
2022-11-13T13:45:56.989Z,12.35
2022-11-13T13:48:54.474Z,12.35
2022-11-13T13:51:51.926Z,12.32
2022-11-13T13:54:49.422Z,12.31
2022-11-13T13:57:46.899Z,12.28
2022-11-13T14:01:05.259Z,12.22
2022-11-13T14:04:01.812Z,12.16
2022-11-13T14:06:59.299Z,12.10
2022-11-13T14:09:57.335Z,12.08
2022-11-13T14:12:54.911Z,12.04
2022-11-13T14:15:52.726Z,11.98
2022-11-13T14:18:50.165Z,11.89
2022-11-13T14:21:47.673Z,11.80
2022-11-13T14:24:45.185Z,11.72
2022-11-13T14:27:42.671Z,11.62
2022-11-13T14:30:40.117Z,11.53
2022-11-13T14:33:37.594Z,11.43
2022-11-13T14:36:38.269Z,11.33
2022-11-13T14:39:35.733Z,11.24
2022-11-13T14:42:37.350Z,11.13
2022-11-13T14:45:35.296Z,11.05
2022-11-13T14:48:35.135Z,10.94
2022-11-13T14:51:32.948Z,10.84
2022-11-13T14:54:46.899Z,10.74
2022-11-13T14:57:47.984Z,10.63
2022-11-13T15:00:45.444Z,10.54
2022-11-13T15:03:43.835Z,10.47
2022-11-13T15:06:42.066Z,10.39
2022-11-13T15:09:39.993Z,10.30
2022-11-13T15:12:37.517Z,10.25
2022-11-13T15:15:36.826Z,10.19
2022-11-13T15:18:35.598Z,10.14
2022-11-13T15:21:33.531Z,10.08
2022-11-13T15:24:31.925Z,10.03
2022-11-13T15:27:29.562Z,9.97
2022-11-13T15:30:27.506Z,9.90
2022-11-13T15:33:25.170Z,9.83
2022-11-13T15:36:22.680Z,9.74
2022-11-13T15:39:23.852Z,9.69
2022-11-13T15:42:21.935Z,9.61
2022-11-13T15:45:19.397Z,9.53
2022-11-13T15:48:18.092Z,9.46
2022-11-13T15:51:16.043Z,9.40
2022-11-13T15:54:13.583Z,9.35
2022-11-13T15:57:14.436Z,9.30
2022-11-13T16:00:12.373Z,9.23
2022-11-13T16:03:12.695Z,9.16
2022-11-13T16:06:10.461Z,9.09
2022-11-13T16:09:08.796Z,9.03
2022-11-13T16:12:09.881Z,8.94
2022-11-13T16:15:07.787Z,8.84
2022-11-13T16:18:06.518Z,8.77
2022-11-13T16:21:05.065Z,8.70
2022-11-13T16:24:03.627Z,8.62
2022-11-13T16:27:01.416Z,8.56
2022-11-13T16:30:03.985Z,8.51
2022-11-13T16:33:08.574Z,8.47
2022-11-13T16:36:10.165Z,8.42
2022-11-13T16:39:11.486Z,8.36
2022-11-13T16:42:09.266Z,8.28
2022-11-13T16:45:07.053Z,8.21
2022-11-13T16:48:05.502Z,8.14
2022-11-13T16:51:04.498Z,8.09
2022-11-13T16:54:02.974Z,8.04
2022-11-13T16:57:01.094Z,8.01
2022-11-13T16:59:59.649Z,7.99
2022-11-13T17:02:57.481Z,8.00
2022-11-13T17:05:55.825Z,8.01
2022-11-13T17:08:53.860Z,8.01
2022-11-13T17:11:53.517Z,8.01
2022-11-13T17:14:51.582Z,8.01
2022-11-13T17:17:49.771Z,8.03
2022-11-13T17:20:48.008Z,8.03
2022-11-13T17:23:45.702Z,8.03
2022-11-13T17:26:43.976Z,8.04
2022-11-13T17:29:44.794Z,8.04
2022-11-13T17:32:43.845Z,8.04
2022-11-13T17:35:42.345Z,8.04
2022-11-13T17:38:40.929Z,8.03
2022-11-13T17:41:38.841Z,7.99
2022-11-13T17:44:37.274Z,7.95
2022-11-13T17:47:35.203Z,7.92
2022-11-13T17:50:34.533Z,7.90
2022-11-13T17:53:33.215Z,7.86
2022-11-13T17:56:31.145Z,7.80
2022-11-13T17:59:29.562Z,7.75
2022-11-13T18:02:30.800Z,7.69
2022-11-13T18:05:29.254Z,7.64
2022-11-13T18:08:32.746Z,7.61
2022-11-13T18:11:31.410Z,7.60
2022-11-13T18:14:30.630Z,7.59
2022-11-13T18:17:29.091Z,7.57
2022-11-13T18:20:28.525Z,7.55
2022-11-13T18:23:27.616Z,7.53
2022-11-13T18:26:28.161Z,7.51
2022-11-13T18:29:26.258Z,7.51
2022-11-13T18:32:24.736Z,7.50
2022-11-13T18:35:23.220Z,7.48
2022-11-13T18:38:21.981Z,7.45
2022-11-13T18:41:23.944Z,7.42
2022-11-13T18:44:22.528Z,7.36
2022-11-13T18:47:20.603Z,7.32
2022-11-13T18:50:20.566Z,7.29
2022-11-13T18:53:20.335Z,7.28
2022-11-13T18:56:18.376Z,7.27
2022-11-13T18:59:17.095Z,7.27
2022-11-13T19:02:15.441Z,7.28
2022-11-13T19:05:15.662Z,7.28
2022-11-13T19:08:14.389Z,7.26
2022-11-13T19:11:13.077Z,7.24
2022-11-13T19:14:11.829Z,7.22
2022-11-13T19:17:11.069Z,7.20
2022-11-13T19:20:10.650Z,7.22
2022-11-13T19:23:11.213Z,7.22
2022-11-13T19:26:09.379Z,7.23
2022-11-13T19:29:21.795Z,7.24
2022-11-13T19:32:21.957Z,7.24
2022-11-13T19:35:21.119Z,7.25
2022-11-13T19:38:20.011Z,7.25
2022-11-13T19:41:18.596Z,7.25
2022-11-13T19:44:17.409Z,7.26
2022-11-13T19:47:15.575Z,7.26
2022-11-13T19:50:14.259Z,7.22
2022-11-13T19:53:12.324Z,7.21
2022-11-13T19:56:10.666Z,7.19
2022-11-13T19:59:09.837Z,7.18
2022-11-13T20:02:07.975Z,7.17
2022-11-13T20:05:07.300Z,7.13
2022-11-13T20:08:09.009Z,7.13
2022-11-13T20:11:07.542Z,7.12
2022-11-13T20:14:06.573Z,7.14
2022-11-13T20:17:10.222Z,7.13
2022-11-13T20:20:08.401Z,7.12
2022-11-13T20:23:06.780Z,7.10
2022-11-13T20:26:05.332Z,7.08
2022-11-13T20:29:05.125Z,7.09
2022-11-13T20:32:03.587Z,7.11
2022-11-13T20:35:03.264Z,7.13
2022-11-13T20:38:03.228Z,7.14
2022-11-13T20:41:01.783Z,7.15
2022-11-13T20:44:03.437Z,7.15
2022-11-13T20:47:02.036Z,7.15
2022-11-13T20:50:00.591Z,7.14
2022-11-13T20:52:58.169Z,7.11
2022-11-13T20:55:56.575Z,7.07
2022-11-13T20:58:55.085Z,7.03
2022-11-13T21:01:53.357Z,6.99
2022-11-13T21:04:51.456Z,6.95
2022-11-13T21:07:49.153Z,6.92
2022-11-13T21:10:47.197Z,6.90
2022-11-13T21:13:47.746Z,6.91
2022-11-13T21:16:45.402Z,6.88
2022-11-13T21:19:42.912Z,6.86
2022-11-13T21:22:40.640Z,6.86
2022-11-13T21:25:38.175Z,6.87
2022-11-13T21:28:36.808Z,6.87
2022-11-13T21:31:34.687Z,6.85
2022-11-13T21:34:35.140Z,6.84
2022-11-13T21:37:32.676Z,6.84
2022-11-13T21:40:30.513Z,6.83
2022-11-13T21:43:27.937Z,6.83
2022-11-13T21:46:25.431Z,6.83
2022-11-13T21:49:22.953Z,6.81
2022-11-13T21:52:20.430Z,6.83
2022-11-13T21:55:17.983Z,6.81
2022-11-13T21:58:15.450Z,6.82
2022-11-13T22:01:12.916Z,6.83
2022-11-13T22:04:10.384Z,6.82
2022-11-13T22:07:07.886Z,6.82
2022-11-13T22:10:08.353Z,6.80
2022-11-13T22:13:06.184Z,6.78
2022-11-13T22:16:03.632Z,6.79
2022-11-13T22:19:01.108Z,6.82
2022-11-13T22:21:58.552Z,6.82
2022-11-13T22:24:56.047Z,6.82
2022-11-13T22:27:53.497Z,6.84
2022-11-13T22:30:50.934Z,6.88
2022-11-13T22:33:52.493Z,6.88
2022-11-13T22:36:52.103Z,6.87
2022-11-13T22:39:49.574Z,6.87
2022-11-13T22:42:47.010Z,6.85
2022-11-13T22:45:44.487Z,6.82
2022-11-13T22:48:41.938Z,6.77
2022-11-13T22:51:41.195Z,6.72
2022-11-13T22:54:38.729Z,6.68
2022-11-13T22:57:36.188Z,6.66
2022-11-13T23:00:33.745Z,6.66
2022-11-13T23:03:31.319Z,6.68
2022-11-13T23:06:28.821Z,6.70
2022-11-13T23:09:27.332Z,6.71
2022-11-13T23:12:26.064Z,6.71
2022-11-13T23:15:26.247Z,6.71
2022-11-13T23:18:37.651Z,6.70
2022-11-13T23:21:35.939Z,6.73
2022-11-13T23:24:33.589Z,6.74
2022-11-13T23:27:33.505Z,6.78
2022-11-13T23:30:31.012Z,6.82
2022-11-13T23:33:28.555Z,6.84
2022-11-13T23:36:27.630Z,6.87
2022-11-13T23:39:25.093Z,6.89
2022-11-13T23:42:45.647Z,6.89
2022-11-13T23:45:40.013Z,6.90
2022-11-13T23:48:39.776Z,6.93
2022-11-13T23:51:37.647Z,6.95
2022-11-13T23:54:35.087Z,6.96
2022-11-13T23:57:32.539Z,6.99
